createdAt,value
2023-05-24T00:03:21.674Z,99698.22
2023-05-24T00:08:23.699Z,99698.31
2023-05-24T00:13:25.444Z,99695.91
2023-05-24T00:18:27.074Z,99690.84
2023-05-24T00:23:28.690Z,99681.59
2023-05-24T00:28:31.344Z,99684.22
2023-05-24T00:33:33.043Z,99698.56
2023-05-24T00:38:34.664Z,99680.94
2023-05-24T00:43:37.169Z,99686.91
2023-05-24T00:48:38.863Z,99682.00
2023-05-24T00:53:44.653Z,99688.91
2023-05-24T00:58:47.046Z,99687.38
2023-05-24T01:03:49.067Z,99696.72
2023-05-24T01:09:14.670Z,99692.59
2023-05-24T01:14:31.646Z,99704.47
2023-05-24T01:19:56.434Z,99692.81
2023-05-24T01:25:19.367Z,99703.88
2023-05-24T01:30:21.161Z,99699.75
2023-05-24T01:35:23.784Z,99693.06
2023-05-24T01:40:25.782Z,99693.13
2023-05-24T01:45:46.215Z,99693.22
2023-05-24T01:50:57.803Z,99696.78
2023-05-24T01:56:02.994Z,99702.72
2023-05-24T02:01:05.062Z,99710.53
2023-05-24T02:06:08.140Z,99720.78
2023-05-24T02:11:10.017Z,99725.13
2023-05-24T02:16:11.718Z,99722.59
2023-05-24T02:21:13.461Z,99719.34
2023-05-24T02:26:17.704Z,99725.34
2023-05-24T02:31:19.463Z,99722.03
2023-05-24T02:36:23.508Z,99726.38
2023-05-24T02:41:25.228Z,99721.50
2023-05-24T02:46:27.284Z,99728.31
2023-05-24T02:51:29.279Z,99734.41
2023-05-24T02:56:30.955Z,99725.13
2023-05-24T03:01:34.440Z,99730.28
2023-05-24T03:06:38.087Z,99731.19
2023-05-24T03:11:39.718Z,99743.91
2023-05-24T03:16:41.675Z,99733.84
2023-05-24T03:21:44.311Z,99746.59
2023-05-24T03:26:45.999Z,99744.06
2023-05-24T03:31:48.691Z,99748.25
2023-05-24T03:36:50.417Z,99756.50
2023-05-24T03:41:53.152Z,99753.88
2023-05-24T03:46:55.873Z,99768.75
2023-05-24T03:51:57.582Z,99778.69
2023-05-24T03:56:59.347Z,99791.16
2023-05-24T04:02:02.280Z,99797.47
2023-05-24T04:07:05.109Z,99794.34
2023-05-24T04:12:07.040Z,99798.06
2023-05-24T04:17:09.164Z,99799.78
2023-05-24T04:22:10.997Z,99802.59
2023-05-24T04:27:13.052Z,99804.31
2023-05-24T04:32:15.154Z,99806.41
2023-05-24T04:37:17.350Z,99828.34
2023-05-24T04:42:20.814Z,99829.69
2023-05-24T04:47:22.697Z,99834.59
2023-05-24T04:52:24.492Z,99820.84
2023-05-24T04:57:26.240Z,99828.66
2023-05-24T05:02:28.122Z,99824.78
2023-05-24T05:07:29.882Z,99826.75
2023-05-24T05:12:31.487Z,99832.47
2023-05-24T05:17:33.123Z,99830.25
2023-05-24T05:22:34.807Z,99830.31
2023-05-24T05:27:36.417Z,99817.22
2023-05-24T05:32:38.428Z,99828.09
2023-05-24T05:37:40.561Z,99838.44
2023-05-24T05:42:42.791Z,99826.56
2023-05-24T05:47:45.050Z,99833.63
2023-05-24T05:52:47.088Z,99846.63
2023-05-24T05:57:48.750Z,99850.88
2023-05-24T06:02:50.462Z,99844.47
2023-05-24T06:07:52.137Z,99841.75
2023-05-24T06:12:54.273Z,99850.31
2023-05-24T06:17:56.161Z,99848.75
2023-05-24T06:22:57.856Z,99853.00
2023-05-24T06:27:59.493Z,99858.22
2023-05-24T06:33:02.481Z,99864.47
2023-05-24T06:38:04.205Z,99875.31
2023-05-24T06:43:06.352Z,99875.69
2023-05-24T06:48:08.260Z,99882.38
2023-05-24T06:53:10.595Z,99875.34
2023-05-24T06:58:14.471Z,99874.94
2023-05-24T07:03:16.463Z,99888.38
2023-05-24T07:08:18.144Z,99897.69
2023-05-24T07:13:19.845Z,99899.66
2023-05-24T07:18:21.717Z,99897.03
2023-05-24T07:23:23.343Z,99905.38
2023-05-24T07:28:25.023Z,99889.78
2023-05-24T07:33:26.961Z,99886.34
2023-05-24T07:38:30.118Z,99888.09
2023-05-24T07:43:31.816Z,99893.34
2023-05-24T07:48:33.433Z,99898.94
2023-05-24T07:53:37.676Z,99892.13
2023-05-24T07:58:41.328Z,99906.84
2023-05-24T08:03:43.100Z,99905.28
2023-05-24T08:08:45.944Z,99909.34
2023-05-24T08:13:47.772Z,99924.97
2023-05-24T08:18:49.411Z,99907.09
2023-05-24T08:23:51.473Z,99926.34
2023-05-24T08:28:53.141Z,99915.97
2023-05-24T08:33:56.115Z,99921.31
2023-05-24T08:38:59.686Z,99911.38
2023-05-24T08:44:02.467Z,99915.34
2023-05-24T08:49:04.645Z,99920.81
2023-05-24T08:54:07.599Z,99927.28
2023-05-24T08:59:10.402Z,99920.28
2023-05-24T09:04:12.562Z,99920.94
2023-05-24T09:09:18.604Z,99916.75
2023-05-24T09:14:20.439Z,99914.31
2023-05-24T09:19:22.146Z,99931.91
2023-05-24T09:24:24.105Z,99943.59
2023-05-24T09:29:26.230Z,99932.88
2023-05-24T09:34:27.860Z,99944.31
2023-05-24T09:39:30.153Z,99939.06
2023-05-24T09:44:32.150Z,99940.56
2023-05-24T09:49:37.080Z,99950.88
2023-05-24T09:54:40.202Z,99928.66
2023-05-24T09:59:42.942Z,99951.25
2023-05-24T10:04:45.285Z,99956.50
2023-05-24T10:09:47.195Z,99951.53
2023-05-24T10:14:52.003Z,99951.16
2023-05-24T10:19:53.657Z,99943.03
2023-05-24T10:24:59.755Z,99953.34
2023-05-24T10:35:38.131Z,99939.13
2023-05-24T10:40:43.805Z,99945.09
2023-05-24T10:41:49.913Z,99945.25
2023-05-24T10:45:49.585Z,99960.38
2023-05-24T10:50:52.060Z,99948.63
2023-05-24T10:55:57.266Z,99958.84
2023-05-24T11:00:58.888Z,99952.78
2023-05-24T11:06:00.654Z,99944.66
2023-05-24T11:11:19.163Z,99948.84
2023-05-24T11:16:38.196Z,99930.44
2023-05-24T11:21:43.552Z,99929.66
2023-05-24T11:26:45.704Z,99932.72
2023-05-24T11:31:49.093Z,99925.97
2023-05-24T11:36:53.312Z,99926.09
2023-05-24T11:41:55.099Z,99927.63
2023-05-24T11:46:59.590Z,99921.63
2023-05-24T11:52:01.851Z,99920.38
2023-05-24T11:57:05.722Z,99922.75
2023-05-24T12:02:08.926Z,99942.00
2023-05-24T12:07:11.571Z,99934.81
2023-05-24T12:12:13.236Z,99922.75
2023-05-24T12:17:18.447Z,99922.88
2023-05-24T12:22:20.093Z,99925.31
2023-05-24T12:27:27.544Z,99919.94
2023-05-24T12:32:29.485Z,99928.75
2023-05-24T12:37:31.565Z,99922.75
2023-05-24T12:42:33.399Z,99925.25
2023-05-24T12:47:35.097Z,99916.91
2023-05-24T12:52:36.775Z,99918.59
2023-05-24T12:57:38.696Z,99913.09
2023-05-24T13:02:40.642Z,99912.88
2023-05-24T13:07:45.144Z,99909.00
2023-05-24T13:12:47.132Z,99899.00
2023-05-24T13:17:48.869Z,99895.19
2023-05-24T13:22:51.321Z,99890.69
2023-05-24T13:27:52.974Z,99899.84
2023-05-24T13:32:55.894Z,99890.34
2023-05-24T13:37:58.553Z,99889.72
2023-05-24T13:43:00.319Z,99895.28
2023-05-24T13:48:05.524Z,99879.84
2023-05-24T13:53:07.267Z,99882.91
2023-05-24T13:58:08.999Z,99886.28
2023-05-24T14:03:13.060Z,99873.53
2023-05-24T14:08:14.774Z,99875.41
2023-05-24T14:13:48.475Z,99867.53
2023-05-24T14:18:38.177Z,99853.00
2023-05-24T14:23:39.824Z,99865.19
2023-05-24T14:28:41.974Z,99861.31
2023-05-24T14:33:43.861Z,99861.34
2023-05-24T14:38:45.577Z,99846.34
2023-05-24T14:43:47.442Z,99844.34
2023-05-24T14:48:49.149Z,99850.44
2023-05-24T14:53:51.058Z,99856.25
2023-05-24T14:58:53.308Z,99851.38
2023-05-24T15:03:56.105Z,99866.94
2023-05-24T15:08:57.792Z,99867.41
2023-05-24T15:14:00.990Z,99869.81
2023-05-24T15:19:02.763Z,99860.50
2023-05-24T15:24:04.705Z,99871.66
2023-05-24T15:29:06.624Z,99868.47
2023-05-24T15:34:08.513Z,99860.88
2023-05-24T15:39:10.436Z,99854.94
2023-05-24T15:44:12.316Z,99856.63
2023-05-24T15:49:14.180Z,99861.69
2023-05-24T15:54:16.078Z,99873.94
2023-05-24T15:59:19.105Z,99867.78
2023-05-24T16:04:22.568Z,99870.19
2023-05-24T16:09:24.462Z,99876.03
2023-05-24T16:14:26.187Z,99871.91
2023-05-24T16:19:27.814Z,99880.47
2023-05-24T16:24:29.493Z,99872.94
2023-05-24T16:29:31.354Z,99885.94
2023-05-24T16:34:41.664Z,99898.56
2023-05-24T16:39:55.167Z,99901.97
2023-05-24T16:44:56.897Z,99912.31
2023-05-24T16:49:58.550Z,99918.53
2023-05-24T16:55:00.213Z,99928.38
2023-05-24T17:00:02.239Z,99930.97
2023-05-24T17:05:04.026Z,99931.78
2023-05-24T17:10:06.499Z,99935.44
2023-05-24T17:15:08.708Z,99938.75
2023-05-24T17:20:10.830Z,99942.38
2023-05-24T17:25:12.512Z,99937.03
2023-05-24T17:30:14.232Z,99951.63
2023-05-24T17:35:15.963Z,99952.59
2023-05-24T17:40:17.865Z,99967.38
2023-05-24T17:45:19.493Z,99975.50
2023-05-24T17:50:21.563Z,99977.31
2023-05-24T17:55:23.227Z,99986.25
2023-05-24T18:00:26.498Z,99982.56
2023-05-24T18:05:28.158Z,99995.38
2023-05-24T18:10:31.299Z,99994.25
2023-05-24T18:15:32.928Z,99997.03
2023-05-24T18:20:35.540Z,100006.97
2023-05-24T18:25:37.234Z,100015.06
2023-05-24T18:30:39.369Z,100034.69
2023-05-24T18:35:41.135Z,100040.94
2023-05-24T18:40:43.050Z,100056.28
2023-05-24T18:45:44.893Z,100060.66
2023-05-24T18:50:47.384Z,100084.56
2023-05-24T18:55:49.061Z,100071.50
2023-05-24T19:00:50.873Z,100079.28
2023-05-24T19:05:52.597Z,100093.31
2023-05-24T19:10:54.208Z,100087.53
2023-05-24T19:15:56.569Z,100100.31
2023-05-24T19:20:58.443Z,100106.84
2023-05-24T19:26:00.154Z,100115.69
2023-05-24T19:31:02.432Z,100108.53
2023-05-24T19:36:04.272Z,100118.44
2023-05-24T19:41:06.103Z,100124.50
2023-05-24T19:46:07.821Z,100129.88
2023-05-24T19:51:09.582Z,100127.59
2023-05-24T19:56:11.514Z,100131.72
2023-05-24T20:01:13.271Z,100141.19
2023-05-24T20:06:16.500Z,100148.72
2023-05-24T20:11:18.156Z,100154.81
2023-05-24T20:16:19.915Z,100160.47
2023-05-24T20:21:21.862Z,100156.81
2023-05-24T20:26:23.492Z,100160.88
2023-05-24T20:31:25.128Z,100151.47
2023-05-24T20:36:26.752Z,100165.88
2023-05-24T20:41:30.511Z,100167.59
2023-05-24T20:46:32.420Z,100171.06
2023-05-24T20:51:34.340Z,100175.44
2023-05-24T20:56:36.380Z,100184.81
2023-05-24T21:01:38.131Z,100182.44
2023-05-24T21:06:39.906Z,100184.38
2023-05-24T21:11:41.562Z,100184.50
2023-05-24T21:16:44.058Z,100195.50
2023-05-24T21:21:45.744Z,100196.25
2023-05-24T21:26:48.576Z,100202.75
2023-05-24T21:31:50.292Z,100201.81
2023-05-24T21:36:51.934Z,100206.25
2023-05-24T21:41:53.811Z,100206.31
2023-05-24T21:46:55.966Z,100214.03
2023-05-24T21:51:57.799Z,100210.66
2023-05-24T21:56:59.517Z,100210.69
2023-05-24T22:02:01.375Z,100199.66
2023-05-24T22:07:03.200Z,100215.06
2023-05-24T22:12:05.226Z,100215.09
2023-05-24T22:17:06.861Z,100215.13
2023-05-24T22:22:09.885Z,100215.97
2023-05-24T22:27:13.637Z,100211.84
2023-05-24T22:32:15.484Z,100202.72
2023-05-24T22:37:17.196Z,100217.06
2023-05-24T22:42:19.229Z,100217.16
2023-05-24T22:47:21.932Z,100222.19
2023-05-24T22:52:24.669Z,100216.38
2023-05-24T22:57:26.416Z,100214.78
2023-05-24T23:02:29.097Z,100210.63
2023-05-24T23:07:30.984Z,100210.63
2023-05-24T23:12:33.186Z,100215.53
2023-05-24T23:17:34.892Z,100213.03
2023-05-24T23:22:37.872Z,100216.47
2023-05-24T23:27:40.753Z,100219.06
2023-05-24T23:32:42.850Z,100218.28
2023-05-24T23:37:44.520Z,100222.50
2023-05-24T23:42:46.290Z,100226.75
2023-05-24T23:47:47.955Z,100217.47
2023-05-24T23:52:50.441Z,100235.22
2023-05-24T23:57:53.814Z,100232.66
